sensor_id;sensor_type;location;lat;lon;timestamp;pressure;altitude;pressure_sealevel;temperature;humidity
56456;BME280;42354;53.218;6.564;2023-12-22T00:00:29;99363.22;;;5.83;70.37
56456;BME280;42354;53.218;6.564;2023-12-22T00:02:54;99358.25;;;5.90;69.82
56456;BME280;42354;53.218;6.564;2023-12-22T00:05:21;99359.84;;;6.06;67.65
56456;BME280;42354;53.218;6.564;2023-12-22T00:07:46;99359.81;;;6.11;66.73
56456;BME280;42354;53.218;6.564;2023-12-22T00:10:12;99345.09;;;5.92;66.53
56456;BME280;42354;53.218;6.564;2023-12-22T00:12:37;99358.47;;;6.04;65.76
56456;BME280;42354;53.218;6.564;2023-12-22T00:15:04;99379.69;;;5.83;66.48
56456;BME280;42354;53.218;6.564;2023-12-22T00:17:30;99408.28;;;5.72;69.11
56456;BME280;42354;53.218;6.564;2023-12-22T00:19:55;99382.66;;;5.22;71.73
56456;BME280;42354;53.218;6.564;2023-12-22T00:22:24;99378.53;;;5.04;72.44
56456;BME280;42354;53.218;6.564;2023-12-22T00:24:50;99368.13;;;5.06;73.34
56456;BME280;42354;53.218;6.564;2023-12-22T00:27:16;99371.72;;;4.96;73.98
56456;BME280;42354;53.218;6.564;2023-12-22T00:29:41;99384.31;;;5.07;73.80
56456;BME280;42354;53.218;6.564;2023-12-22T00:32:07;99330.28;;;5.13;72.74
56456;BME280;42354;53.218;6.564;2023-12-22T00:34:35;99345.00;;;5.48;69.49
56456;BME280;42354;53.218;6.564;2023-12-22T00:37:01;99371.34;;;5.44;68.27
56456;BME280;42354;53.218;6.564;2023-12-22T00:39:27;99364.44;;;5.51;67.19
56456;BME280;42354;53.218;6.564;2023-12-22T00:41:53;99393.59;;;5.27;67.97
56456;BME280;42354;53.218;6.564;2023-12-22T00:44:18;99383.25;;;4.63;68.21
56456;BME280;42354;53.218;6.564;2023-12-22T00:46:44;99395.56;;;4.91;64.88
56456;BME280;42354;53.218;6.564;2023-12-22T00:49:10;99384.59;;;4.91;66.01
56456;BME280;42354;53.218;6.564;2023-12-22T00:51:35;99398.59;;;5.04;66.46
56456;BME280;42354;53.218;6.564;2023-12-22T00:54:00;99397.75;;;5.09;66.30
56456;BME280;42354;53.218;6.564;2023-12-22T00:56:26;99371.69;;;5.17;65.70
56456;BME280;42354;53.218;6.564;2023-12-22T00:58:51;99410.88;;;5.32;65.85
56456;BME280;42354;53.218;6.564;2023-12-22T01:01:17;99375.50;;;5.31;66.55
56456;BME280;42354;53.218;6.564;2023-12-22T01:03:42;99374.72;;;5.15;66.33
56456;BME280;42354;53.218;6.564;2023-12-22T01:06:08;99415.00;;;5.25;65.62
56456;BME280;42354;53.218;6.564;2023-12-22T01:08:36;99372.81;;;5.05;65.69
56456;BME280;42354;53.218;6.564;2023-12-22T01:11:03;99401.84;;;5.22;65.87
56456;BME280;42354;53.218;6.564;2023-12-22T01:13:28;99408.94;;;5.38;65.83
56456;BME280;42354;53.218;6.564;2023-12-22T01:15:54;99402.94;;;5.21;66.58
56456;BME280;42354;53.218;6.564;2023-12-22T01:18:19;99383.47;;;5.17;67.19
56456;BME280;42354;53.218;6.564;2023-12-22T01:20:45;99427.59;;;5.41;67.68
56456;BME280;42354;53.218;6.564;2023-12-22T01:23:10;99402.06;;;5.56;67.86
56456;BME280;42354;53.218;6.564;2023-12-22T01:25:36;99438.53;;;5.67;68.07
56456;BME280;42354;53.218;6.564;2023-12-22T01:28:01;99430.56;;;5.60;68.63
56456;BME280;42354;53.218;6.564;2023-12-22T01:30:27;99435.19;;;5.70;68.66
56456;BME280;42354;53.218;6.564;2023-12-22T01:32:52;99404.22;;;5.64;68.44
56456;BME280;42354;53.218;6.564;2023-12-22T01:35:18;99458.00;;;5.70;69.05
56456;BME280;42354;53.218;6.564;2023-12-22T01:37:44;99459.38;;;5.73;69.05
56456;BME280;42354;53.218;6.564;2023-12-22T01:40:09;99409.19;;;5.57;69.54
56456;BME280;42354;53.218;6.564;2023-12-22T01:42:35;99460.72;;;5.75;69.47
56456;BME280;42354;53.218;6.564;2023-12-22T01:45:00;99464.28;;;5.81;69.95
56456;BME280;42354;53.218;6.564;2023-12-22T01:47:26;99464.00;;;5.77;69.73
56456;BME280;42354;53.218;6.564;2023-12-22T01:49:52;99448.41;;;5.73;68.82
56456;BME280;42354;53.218;6.564;2023-12-22T01:52:18;99438.28;;;5.48;69.30
56456;BME280;42354;53.218;6.564;2023-12-22T01:54:44;99457.50;;;5.37;70.22
56456;BME280;42354;53.218;6.564;2023-12-22T01:57:13;99460.53;;;5.21;70.67
56456;BME280;42354;53.218;6.564;2023-12-22T01:59:40;99467.69;;;5.17;71.09
56456;BME280;42354;53.218;6.564;2023-12-22T02:02:06;99453.16;;;5.16;71.50
56456;BME280;42354;53.218;6.564;2023-12-22T02:04:31;99440.53;;;5.15;71.42
56456;BME280;42354;53.218;6.564;2023-12-22T02:07:01;99457.53;;;5.22;71.80
56456;BME280;42354;53.218;6.564;2023-12-22T02:09:26;99436.97;;;5.09;71.89
56456;BME280;42354;53.218;6.564;2023-12-22T02:11:52;99454.22;;;5.41;71.18
56456;BME280;42354;53.218;6.564;2023-12-22T02:14:18;99458.34;;;5.48;71.00
56456;BME280;42354;53.218;6.564;2023-12-22T02:17:05;99480.81;;;5.50;70.45
56456;BME280;42354;53.218;6.564;2023-12-22T02:19:43;99472.34;;;5.11;73.04
56456;BME280;42354;53.218;6.564;2023-12-22T02:22:12;99472.63;;;4.99;74.46
56456;BME280;42354;53.218;6.564;2023-12-22T02:24:41;99464.13;;;4.91;75.83
56456;BME280;42354;53.218;6.564;2023-12-22T02:27:22;99463.28;;;4.85;76.12
56456;BME280;42354;53.218;6.564;2023-12-22T02:32:38;99371.44;;;4.93;75.44
56456;BME280;42354;53.218;6.564;2023-12-22T02:35:10;99468.25;;;4.98;74.80
56456;BME280;42354;53.218;6.564;2023-12-22T02:37:38;99454.00;;;4.96;74.95
56456;BME280;42354;53.218;6.564;2023-12-22T02:40:05;99461.38;;;4.96;75.51
56456;BME280;42354;53.218;6.564;2023-12-22T02:42:32;99430.13;;;4.97;75.55
56456;BME280;42354;53.218;6.564;2023-12-22T02:44:59;99425.44;;;4.87;75.83
56456;BME280;42354;53.218;6.564;2023-12-22T02:47:25;99447.38;;;5.02;76.10
56456;BME280;42354;53.218;6.564;2023-12-22T02:49:53;99423.53;;;5.08;76.19
56456;BME280;42354;53.218;6.564;2023-12-22T02:52:19;99436.94;;;5.20;75.97
56456;BME280;42354;53.218;6.564;2023-12-22T02:54:44;99436.13;;;5.34;75.26
56456;BME280;42354;53.218;6.564;2023-12-22T02:57:12;99392.44;;;5.53;74.36
56456;BME280;42354;53.218;6.564;2023-12-22T02:59:38;99443.19;;;5.66;73.50
56456;BME280;42354;53.218;6.564;2023-12-22T03:02:03;99396.34;;;5.32;73.36
56456;BME280;42354;53.218;6.564;2023-12-22T03:04:29;99473.44;;;5.20;74.88
56456;BME280;42354;53.218;6.564;2023-12-22T03:06:54;99475.06;;;4.65;76.11
56456;BME280;42354;53.218;6.564;2023-12-22T03:09:20;99457.38;;;4.10;77.30
56456;BME280;42354;53.218;6.564;2023-12-22T03:11:47;99390.44;;;3.76;78.52
56456;BME280;42354;53.218;6.564;2023-12-22T03:14:12;99418.81;;;3.59;79.30
56456;BME280;42354;53.218;6.564;2023-12-22T03:16:39;99410.84;;;3.48;80.16
56456;BME280;42354;53.218;6.564;2023-12-22T03:19:04;99456.03;;;3.60;80.68
56456;BME280;42354;53.218;6.564;2023-12-22T03:21:30;99421.78;;;3.48;80.71
56456;BME280;42354;53.218;6.564;2023-12-22T03:23:55;99446.50;;;3.63;80.84
56456;BME280;42354;53.218;6.564;2023-12-22T03:26:21;99449.47;;;3.61;80.58
56456;BME280;42354;53.218;6.564;2023-12-22T03:28:46;99408.44;;;3.61;80.85
56456;BME280;42354;53.218;6.564;2023-12-22T03:31:12;99459.25;;;4.00;79.75
56456;BME280;42354;53.218;6.564;2023-12-22T03:33:37;99452.72;;;4.06;79.18
56456;BME280;42354;53.218;6.564;2023-12-22T03:36:03;99467.59;;;4.30;78.67
56456;BME280;42354;53.218;6.564;2023-12-22T03:38:28;99439.91;;;4.21;79.02
56456;BME280;42354;53.218;6.564;2023-12-22T03:40:54;99469.81;;;4.48;79.00
56456;BME280;42354;53.218;6.564;2023-12-22T03:43:19;99448.97;;;4.52;78.68
56456;BME280;42354;53.218;6.564;2023-12-22T03:45:45;99457.81;;;4.80;76.66
56456;BME280;42354;53.218;6.564;2023-12-22T03:48:11;99475.38;;;4.89;75.50
56456;BME280;42354;53.218;6.564;2023-12-22T03:50:36;99469.63;;;5.06;73.89
56456;BME280;42354;53.218;6.564;2023-12-22T03:53:02;99494.00;;;5.18;73.30
56456;BME280;42354;53.218;6.564;2023-12-22T03:55:28;99365.88;;;5.28;72.30
56456;BME280;42354;53.218;6.564;2023-12-22T03:57:53;99468.72;;;5.46;71.57
56456;BME280;42354;53.218;6.564;2023-12-22T04:00:19;99438.03;;;5.39;71.67
56456;BME280;42354;53.218;6.564;2023-12-22T04:02:45;99454.44;;;5.64;71.13
56456;BME280;42354;53.218;6.564;2023-12-22T04:05:13;99477.22;;;5.60;71.57
56456;BME280;42354;53.218;6.564;2023-12-22T04:07:39;99479.72;;;5.56;71.96
56456;BME280;42354;53.218;6.564;2023-12-22T04:10:05;99448.97;;;5.59;71.95
56456;BME280;42354;53.218;6.564;2023-12-22T04:12:30;99471.75;;;5.55;72.09
56456;BME280;42354;53.218;6.564;2023-12-22T04:14:56;99496.97;;;5.62;72.26
56456;BME280;42354;53.218;6.564;2023-12-22T04:17:22;99447.84;;;5.65;72.77
56456;BME280;42354;53.218;6.564;2023-12-22T04:19:47;99485.44;;;5.75;73.08
56456;BME280;42354;53.218;6.564;2023-12-22T04:22:12;99476.13;;;5.66;73.52
56456;BME280;42354;53.218;6.564;2023-12-22T04:24:38;99476.88;;;5.87;73.45
56456;BME280;42354;53.218;6.564;2023-12-22T04:27:03;99477.16;;;5.96;73.04
56456;BME280;42354;53.218;6.564;2023-12-22T04:29:29;99491.47;;;5.82;72.77
56456;BME280;42354;53.218;6.564;2023-12-22T04:31:55;99492.28;;;5.93;71.57
56456;BME280;42354;53.218;6.564;2023-12-22T04:34:20;99498.84;;;6.02;69.87
56456;BME280;42354;53.218;6.564;2023-12-22T04:36:46;99496.56;;;6.25;66.70
56456;BME280;42354;53.218;6.564;2023-12-22T04:39:12;99499.84;;;6.27;65.83
56456;BME280;42354;53.218;6.564;2023-12-22T04:41:37;99510.84;;;6.27;65.33
56456;BME280;42354;53.218;6.564;2023-12-22T04:44:03;99499.78;;;6.37;64.42
56456;BME280;42354;53.218;6.564;2023-12-22T04:46:29;99519.03;;;6.42;64.56
56456;BME280;42354;53.218;6.564;2023-12-22T04:48:55;99500.38;;;6.34;65.14
56456;BME280;42354;53.218;6.564;2023-12-22T04:51:21;99506.44;;;6.31;66.36
56456;BME280;42354;53.218;6.564;2023-12-22T04:53:46;99524.00;;;6.40;66.80
56456;BME280;42354;53.218;6.564;2023-12-22T04:56:12;99496.81;;;6.33;66.51
56456;BME280;42354;53.218;6.564;2023-12-22T04:58:37;99515.47;;;6.36;67.15
56456;BME280;42354;53.218;6.564;2023-12-22T05:01:03;99519.56;;;6.44;65.59
56456;BME280;42354;53.218;6.564;2023-12-22T05:03:28;99533.00;;;6.51;64.37
56456;BME280;42354;53.218;6.564;2023-12-22T05:05:54;99529.16;;;6.52;64.04
56456;BME280;42354;53.218;6.564;2023-12-22T05:08:19;99509.44;;;6.39;64.16
56456;BME280;42354;53.218;6.564;2023-12-22T05:10:45;99517.91;;;6.48;64.21
56456;BME280;42354;53.218;6.564;2023-12-22T05:13:10;99520.56;;;6.63;62.75
56456;BME280;42354;53.218;6.564;2023-12-22T05:15:36;99549.66;;;6.74;62.25
56456;BME280;42354;53.218;6.564;2023-12-22T05:18:01;99501.72;;;6.86;61.87
56456;BME280;42354;53.218;6.564;2023-12-22T05:20:27;99539.50;;;6.70;63.17
56456;BME280;42354;53.218;6.564;2023-12-22T05:22:52;99555.44;;;6.73;63.55
56456;BME280;42354;53.218;6.564;2023-12-22T05:25:18;99535.13;;;6.64;63.68
56456;BME280;42354;53.218;6.564;2023-12-22T05:27:43;99544.69;;;6.71;64.41
56456;BME280;42354;53.218;6.564;2023-12-22T05:30:10;99530.50;;;6.54;64.79
56456;BME280;42354;53.218;6.564;2023-12-22T05:32:35;99529.97;;;6.52;65.15
56456;BME280;42354;53.218;6.564;2023-12-22T05:35:01;99554.63;;;6.67;64.90
56456;BME280;42354;53.218;6.564;2023-12-22T05:37:26;99541.78;;;6.58;65.67
56456;BME280;42354;53.218;6.564;2023-12-22T05:39:51;99540.38;;;6.55;64.81
56456;BME280;42354;53.218;6.564;2023-12-22T05:42:17;99529.97;;;6.52;64.63
56456;BME280;42354;53.218;6.564;2023-12-22T05:44:43;99516.38;;;6.71;64.00
56456;BME280;42354;53.218;6.564;2023-12-22T05:47:09;99548.34;;;6.62;63.95
56456;BME280;42354;53.218;6.564;2023-12-22T05:49:35;99549.22;;;6.52;64.33
56456;BME280;42354;53.218;6.564;2023-12-22T05:52:01;99537.88;;;6.64;63.62
56456;BME280;42354;53.218;6.564;2023-12-22T05:54:26;99547.81;;;6.60;64.56
56456;BME280;42354;53.218;6.564;2023-12-22T05:56:52;99551.38;;;6.55;65.08
56456;BME280;42354;53.218;6.564;2023-12-22T05:59:17;99558.50;;;6.66;65.01
56456;BME280;42354;53.218;6.564;2023-12-22T06:01:43;99562.38;;;6.60;65.45
56456;BME280;42354;53.218;6.564;2023-12-22T06:04:09;99553.00;;;6.66;65.01
56456;BME280;42354;53.218;6.564;2023-12-22T06:06:36;99545.34;;;6.58;64.77
56456;BME280;42354;53.218;6.564;2023-12-22T06:09:03;99533.22;;;6.64;64.25
56456;BME280;42354;53.218;6.564;2023-12-22T06:11:28;99548.84;;;6.74;64.07
56456;BME280;42354;53.218;6.564;2023-12-22T06:13:54;99565.63;;;6.67;64.66
56456;BME280;42354;53.218;6.564;2023-12-22T06:16:20;99549.13;;;6.67;64.98
56456;BME280;42354;53.218;6.564;2023-12-22T06:18:46;99558.56;;;6.56;65.10
56456;BME280;42354;53.218;6.564;2023-12-22T06:21:12;99543.19;;;6.45;65.36
56456;BME280;42354;53.218;6.564;2023-12-22T06:23:37;99555.22;;;6.59;65.76
56456;BME280;42354;53.218;6.564;2023-12-22T06:26:10;99553.31;;;6.55;66.34
56456;BME280;42354;53.218;6.564;2023-12-22T06:28:36;99565.94;;;6.61;67.07
56456;BME280;42354;53.218;6.564;2023-12-22T06:31:03;99542.88;;;6.57;66.59
56456;BME280;42354;53.218;6.564;2023-12-22T06:33:29;99551.91;;;6.62;66.71
56456;BME280;42354;53.218;6.564;2023-12-22T06:35:55;99534.66;;;6.46;67.27
56456;BME280;42354;53.218;6.564;2023-12-22T06:38:20;99573.59;;;6.69;66.94
56456;BME280;42354;53.218;6.564;2023-12-22T06:40:46;99567.84;;;6.65;67.35
56456;BME280;42354;53.218;6.564;2023-12-22T06:43:14;99559.66;;;6.50;67.21
56456;BME280;42354;53.218;6.564;2023-12-22T06:45:40;99595.66;;;6.54;67.90
56456;BME280;42354;53.218;6.564;2023-12-22T06:48:06;99582.34;;;5.86;69.03
56456;BME280;42354;53.218;6.564;2023-12-22T06:50:32;99590.84;;;5.28;69.46
56456;BME280;42354;53.218;6.564;2023-12-22T06:52:58;99576.25;;;4.92;70.22
56456;BME280;42354;53.218;6.564;2023-12-22T06:55:23;99583.41;;;4.98;70.62
56456;BME280;42354;53.218;6.564;2023-12-22T06:57:49;99570.53;;;5.09;70.55
56456;BME280;42354;53.218;6.564;2023-12-22T07:00:15;99568.06;;;5.02;70.75
56456;BME280;42354;53.218;6.564;2023-12-22T07:02:41;99579.88;;;5.28;70.91
56456;BME280;42354;53.218;6.564;2023-12-22T07:07:36;99530.75;;;5.52;69.20
56456;BME280;42354;53.218;6.564;2023-12-22T07:10:02;99554.06;;;6.01;67.72
56456;BME280;42354;53.218;6.564;2023-12-22T07:12:27;99554.56;;;6.18;66.06
56456;BME280;42354;53.218;6.564;2023-12-22T07:14:53;99581.47;;;6.31;64.68
56456;BME280;42354;53.218;6.564;2023-12-22T07:17:19;99608.34;;;6.44;64.90
56456;BME280;42354;53.218;6.564;2023-12-22T07:19:45;99566.91;;;6.26;64.91
56456;BME280;42354;53.218;6.564;2023-12-22T07:22:10;99595.44;;;6.35;65.48
56456;BME280;42354;53.218;6.564;2023-12-22T07:24:36;99585.56;;;6.34;65.39
56456;BME280;42354;53.218;6.564;2023-12-22T07:27:01;99602.00;;;6.44;65.93
56456;BME280;42354;53.218;6.564;2023-12-22T07:29:27;99584.47;;;6.35;66.40
56456;BME280;42354;53.218;6.564;2023-12-22T07:31:52;99630.59;;;6.43;66.88
56456;BME280;42354;53.218;6.564;2023-12-22T07:34:18;99639.38;;;6.45;67.42
56456;BME280;42354;53.218;6.564;2023-12-22T07:36:44;99653.72;;;6.32;68.80
56456;BME280;42354;53.218;6.564;2023-12-22T07:39:09;99647.44;;;6.11;70.61
56456;BME280;42354;53.218;6.564;2023-12-22T07:41:36;99631.53;;;5.92;71.63
56456;BME280;42354;53.218;6.564;2023-12-22T07:44:01;99639.22;;;5.90;72.44
56456;BME280;42354;53.218;6.564;2023-12-22T07:46:27;99642.75;;;5.86;73.03
56456;BME280;42354;53.218;6.564;2023-12-22T07:48:54;99636.19;;;5.82;73.67
56456;BME280;42354;53.218;6.564;2023-12-22T07:51:19;99635.63;;;5.85;74.01
56456;BME280;42354;53.218;6.564;2023-12-22T07:53:46;99625.75;;;5.74;74.27
56456;BME280;42354;53.218;6.564;2023-12-22T07:56:11;99630.69;;;5.82;74.15
56456;BME280;42354;53.218;6.564;2023-12-22T07:58:37;99624.38;;;5.81;74.25
56456;BME280;42354;53.218;6.564;2023-12-22T08:01:03;99630.13;;;5.85;74.27
56456;BME280;42354;53.218;6.564;2023-12-22T08:03:29;99633.72;;;5.90;74.13
56456;BME280;42354;53.218;6.564;2023-12-22T08:05:55;99615.84;;;6.03;73.02
56456;BME280;42354;53.218;6.564;2023-12-22T08:08:21;99614.16;;;6.33;71.06
56456;BME280;42354;53.218;6.564;2023-12-22T08:10:46;99624.53;;;6.51;69.45
56456;BME280;42354;53.218;6.564;2023-12-22T08:13:12;99600.91;;;6.45;69.49
56456;BME280;42354;53.218;6.564;2023-12-22T08:15:37;99618.72;;;6.63;69.14
56456;BME280;42354;53.218;6.564;2023-12-22T08:18:03;99619.81;;;6.67;68.51
56456;BME280;42354;53.218;6.564;2023-12-22T08:20:28;99620.09;;;6.65;68.33
56456;BME280;42354;53.218;6.564;2023-12-22T08:22:54;99620.63;;;6.67;68.55
56456;BME280;42354;53.218;6.564;2023-12-22T08:25:20;99617.59;;;6.69;68.69
56456;BME280;42354;53.218;6.564;2023-12-22T08:27:46;99614.25;;;6.77;69.22
56456;BME280;42354;53.218;6.564;2023-12-22T08:30:12;99585.41;;;6.74;69.43
56456;BME280;42354;53.218;6.564;2023-12-22T08:32:38;99610.69;;;6.82;69.68
56456;BME280;42354;53.218;6.564;2023-12-22T08:35:04;99602.50;;;6.61;70.60
56456;BME280;42354;53.218;6.564;2023-12-22T08:37:30;99622.81;;;6.70;70.76
56456;BME280;42354;53.218;6.564;2023-12-22T08:39:55;99613.44;;;6.71;70.97
56456;BME280;42354;53.218;6.564;2023-12-22T08:42:21;99614.03;;;6.63;71.44
56456;BME280;42354;53.218;6.564;2023-12-22T08:44:48;99612.97;;;6.54;71.95
56456;BME280;42354;53.218;6.564;2023-12-22T08:47:14;99611.53;;;6.72;72.00
56456;BME280;42354;53.218;6.564;2023-12-22T08:49:40;99629.69;;;6.68;73.06
56456;BME280;42354;53.218;6.564;2023-12-22T08:52:05;99621.78;;;6.51;73.52
56456;BME280;42354;53.218;6.564;2023-12-22T08:54:31;99607.50;;;6.44;75.13
56456;BME280;42354;53.218;6.564;2023-12-22T08:56:56;99596.53;;;6.39;76.00
56456;BME280;42354;53.218;6.564;2023-12-22T08:59:22;99580.84;;;6.44;76.20
56456;BME280;42354;53.218;6.564;2023-12-22T09:01:47;99603.66;;;6.45;76.72
56456;BME280;42354;53.218;6.564;2023-12-22T09:04:13;99599.03;;;6.40;77.65
56456;BME280;42354;53.218;6.564;2023-12-22T09:06:38;99599.31;;;6.29;77.89
56456;BME280;42354;53.218;6.564;2023-12-22T09:09:05;99590.53;;;6.32;78.16
56456;BME280;42354;53.218;6.564;2023-12-22T09:11:31;99583.94;;;6.33;77.93
56456;BME280;42354;53.218;6.564;2023-12-22T09:13:57;99594.38;;;6.31;77.54
56456;BME280;42354;53.218;6.564;2023-12-22T09:16:23;99580.91;;;6.29;78.16
56456;BME280;42354;53.218;6.564;2023-12-22T09:18:50;99564.72;;;6.12;77.98
56456;BME280;42354;53.218;6.564;2023-12-22T09:21:16;99579.53;;;6.21;77.89
56456;BME280;42354;53.218;6.564;2023-12-22T09:23:45;99577.34;;;6.24;77.44
56456;BME280;42354;53.218;6.564;2023-12-22T09:26:15;99598.78;;;6.32;77.60
56456;BME280;42354;53.218;6.564;2023-12-22T09:28:41;99595.19;;;6.31;77.81
56456;BME280;42354;53.218;6.564;2023-12-22T09:31:07;99615.22;;;6.37;77.46
56456;BME280;42354;53.218;6.564;2023-12-22T09:33:33;99594.88;;;6.48;76.78
56456;BME280;42354;53.218;6.564;2023-12-22T09:35:59;99571.78;;;6.44;76.13
56456;BME280;42354;53.218;6.564;2023-12-22T09:38:25;99585.81;;;6.47;75.48
56456;BME280;42354;53.218;6.564;2023-12-22T09:40:50;99586.56;;;6.58;74.84
56456;BME280;42354;53.218;6.564;2023-12-22T09:43:19;99598.88;;;6.71;74.68
56456;BME280;42354;53.218;6.564;2023-12-22T09:45:46;99592.03;;;6.73;74.65
56456;BME280;42354;53.218;6.564;2023-12-22T09:48:13;99612.91;;;6.74;74.63
56456;BME280;42354;53.218;6.564;2023-12-22T09:50:43;99628.00;;;6.82;74.44
56456;BME280;42354;53.218;6.564;2023-12-22T09:53:12;99579.84;;;6.85;74.41
56456;BME280;42354;53.218;6.564;2023-12-22T09:55:46;99594.66;;;6.89;73.88
56456;BME280;42354;53.218;6.564;2023-12-22T09:58:15;99589.97;;;6.89;74.53
56456;BME280;42354;53.218;6.564;2023-12-22T10:00:42;99582.81;;;6.93;74.18
56456;BME280;42354;53.218;6.564;2023-12-22T10:03:10;99617.47;;;6.99;74.26
56456;BME280;42354;53.218;6.564;2023-12-22T10:05:40;99609.16;;;7.04;73.84
56456;BME280;42354;53.218;6.564;2023-12-22T10:08:06;99607.22;;;7.10;73.74
56456;BME280;42354;53.218;6.564;2023-12-22T10:10:35;99612.72;;;7.10;73.79
56456;BME280;42354;53.218;6.564;2023-12-22T10:13:03;99601.84;;;6.90;73.98
56456;BME280;42354;53.218;6.564;2023-12-22T10:15:32;99615.97;;;7.17;73.66
56456;BME280;42354;53.218;6.564;2023-12-22T10:17:58;99623.41;;;7.17;73.62
56456;BME280;42354;53.218;6.564;2023-12-22T10:20:24;99609.66;;;7.17;73.64
56456;BME280;42354;53.218;6.564;2023-12-22T10:22:51;99626.69;;;7.19;73.87
56456;BME280;42354;53.218;6.564;2023-12-22T10:25:19;99616.19;;;7.26;73.41
56456;BME280;42354;53.218;6.564;2023-12-22T10:27:45;99591.22;;;7.17;73.04
56456;BME280;42354;53.218;6.564;2023-12-22T10:30:10;99606.31;;;7.20;73.12
56456;BME280;42354;53.218;6.564;2023-12-22T10:32:42;99622.53;;;7.26;73.35
56456;BME280;42354;53.218;6.564;2023-12-22T10:35:08;99594.25;;;7.16;73.68
56456;BME280;42354;53.218;6.564;2023-12-22T10:37:34;99594.88;;;7.02;74.06
56456;BME280;42354;53.218;6.564;2023-12-22T10:39:59;99594.25;;;7.16;74.43
56456;BME280;42354;53.218;6.564;2023-12-22T10:42:25;99573.09;;;7.06;74.30
56456;BME280;42354;53.218;6.564;2023-12-22T10:44:51;99605.47;;;7.24;74.72
56456;BME280;42354;53.218;6.564;2023-12-22T10:47:18;99598.34;;;7.23;75.21
56456;BME280;42354;53.218;6.564;2023-12-22T10:49:46;99598.06;;;7.25;75.43
56456;BME280;42354;53.218;6.564;2023-12-22T10:52:16;99594.41;;;7.29;75.34
56456;BME280;42354;53.218;6.564;2023-12-22T10:54:43;99574.13;;;7.20;75.25
56456;BME280;42354;53.218;6.564;2023-12-22T10:57:09;99582.66;;;7.24;75.75
56456;BME280;42354;53.218;6.564;2023-12-22T10:59:40;99594.72;;;7.23;75.94
56456;BME280;42354;53.218;6.564;2023-12-22T11:02:15;99602.97;;;7.28;75.94
56456;BME280;42354;53.218;6.564;2023-12-22T11:04:47;99590.41;;;7.12;75.96
56456;BME280;42354;53.218;6.564;2023-12-22T11:07:14;99590.09;;;7.23;75.99
56456;BME280;42354;53.218;6.564;2023-12-22T11:09:41;99607.66;;;7.27;76.25
56456;BME280;42354;53.218;6.564;2023-12-22T11:12:10;99587.34;;;7.18;76.73
56456;BME280;42354;53.218;6.564;2023-12-22T11:14:37;99595.59;;;7.23;76.90
56456;BME280;42354;53.218;6.564;2023-12-22T11:17:05;99599.97;;;7.24;76.74
56456;BME280;42354;53.218;6.564;2023-12-22T11:19:32;99592.22;;;7.31;76.96
56456;BME280;42354;53.218;6.564;2023-12-22T11:22:01;99594.03;;;7.46;76.64
56456;BME280;42354;53.218;6.564;2023-12-22T11:24:28;99579.16;;;7.47;76.61
56456;BME280;42354;53.218;6.564;2023-12-22T11:26:54;99597.06;;;7.45;76.62
56456;BME280;42354;53.218;6.564;2023-12-22T11:29:20;99596.47;;;7.48;76.65
56456;BME280;42354;53.218;6.564;2023-12-22T11:31:47;99573.09;;;7.45;76.75
56456;BME280;42354;53.218;6.564;2023-12-22T11:34:17;99593.69;;;7.53;76.61
56456;BME280;42354;53.218;6.564;2023-12-22T11:36:45;99589.84;;;7.54;76.93
56456;BME280;42354;53.218;6.564;2023-12-22T11:39:11;99598.38;;;7.52;76.78
56456;BME280;42354;53.218;6.564;2023-12-22T11:41:39;99574.72;;;7.51;76.91
56456;BME280;42354;53.218;6.564;2023-12-22T11:44:05;99579.09;;;7.57;76.82
56456;BME280;42354;53.218;6.564;2023-12-22T11:46:32;99584.31;;;7.59;76.72
56456;BME280;42354;53.218;6.564;2023-12-22T11:48:59;99570.81;;;7.57;76.83
56456;BME280;42354;53.218;6.564;2023-12-22T11:51:31;99564.72;;;7.60;76.65
56456;BME280;42354;53.218;6.564;2023-12-22T11:53:57;99567.50;;;7.60;76.85
56456;BME280;42354;53.218;6.564;2023-12-22T11:56:24;99560.34;;;7.59;76.94
56456;BME280;42354;53.218;6.564;2023-12-22T11:58:52;99554.25;;;7.62;76.52
56456;BME280;42354;53.218;6.564;2023-12-22T12:01:22;99563.88;;;7.65;76.64
56456;BME280;42354;53.218;6.564;2023-12-22T12:08:53;99552.31;;;7.63;76.10
56456;BME280;42354;53.218;6.564;2023-12-22T12:11:22;99524.56;;;7.54;76.25
56456;BME280;42354;53.218;6.564;2023-12-22T12:13:49;99536.34;;;7.65;76.24
56456;BME280;42354;53.218;6.564;2023-12-22T12:16:18;99513.06;;;7.47;76.42
56456;BME280;42354;53.218;6.564;2023-12-22T12:18:46;99530.84;;;7.65;76.31
56456;BME280;42354;53.218;6.564;2023-12-22T12:21:12;99514.00;;;7.67;76.59
56456;BME280;42354;53.218;6.564;2023-12-22T12:23:40;99514.25;;;7.70;76.25
56456;BME280;42354;53.218;6.564;2023-12-22T12:26:07;99507.81;;;7.51;76.84
56456;BME280;42354;53.218;6.564;2023-12-22T12:28:34;99506.94;;;7.55;76.64
56456;BME280;42354;53.218;6.564;2023-12-22T12:31:04;99521.19;;;7.62;76.70
56456;BME280;42354;53.218;6.564;2023-12-22T12:33:31;99515.16;;;7.60;76.74
56456;BME280;42354;53.218;6.564;2023-12-22T12:35:58;99495.94;;;7.55;76.06
56456;BME280;42354;53.218;6.564;2023-12-22T12:38:43;99498.41;;;7.57;76.44
56456;BME280;42354;53.218;6.564;2023-12-22T12:41:12;99502.31;;;7.51;76.20
56456;BME280;42354;53.218;6.564;2023-12-22T12:43:43;99494.59;;;7.53;75.83
56456;BME280;42354;53.218;6.564;2023-12-22T12:46:09;99499.28;;;7.52;76.37
56456;BME280;42354;53.218;6.564;2023-12-22T12:48:35;99501.50;;;7.50;76.44
56456;BME280;42354;53.218;6.564;2023-12-22T12:51:04;99510.06;;;7.49;75.94
56456;BME280;42354;53.218;6.564;2023-12-22T12:53:34;99513.03;;;7.52;76.11
56456;BME280;42354;53.218;6.564;2023-12-22T12:56:01;99504.19;;;7.55;75.55
56456;BME280;42354;53.218;6.564;2023-12-22T12:58:30;99492.94;;;7.52;76.01
56456;BME280;42354;53.218;6.564;2023-12-22T13:01:10;99508.97;;;7.45;76.31
56456;BME280;42354;53.218;6.564;2023-12-22T13:03:55;99487.44;;;7.52;76.28
56456;BME280;42354;53.218;6.564;2023-12-22T13:06:22;99465.34;;;7.28;76.50
56456;BME280;42354;53.218;6.564;2023-12-22T13:08:51;99474.81;;;7.46;76.65
56456;BME280;42354;53.218;6.564;2023-12-22T13:11:21;99495.22;;;7.45;76.87
56456;BME280;42354;53.218;6.564;2023-12-22T13:13:47;99487.03;;;7.34;77.03
56456;BME280;42354;53.218;6.564;2023-12-22T13:16:17;99501.81;;;7.44;77.05